Hauptseite
METAR-TAF:

METAR-TAF

Flughäfen :

Lahr, Deutschland

Flughafen Lahr

Breite: 48-22-09N, Länge: 007-49-40E, Höhe: 156 m

Beobachtung

Neuester Wetterbericht von vor 9 Stunden und 19 Minuten, um 18:20 UTC
Wind 19 kt aus Süd
Temperatur 10°C
Luftfeuchtigkeit 71%
Luftdruck 988 hPa
Sichtweite 10 km oder mehr
keine Wolken unter 1500 m und keine Kumulonimbus oder Gewitterwolken

METAR: EDTL 101820Z 19019KT CAVOK 10/05 Q0988

Zeit: 04:39 (03:39 UTC)

Prognose

Neuester Wetterbericht von vor 10 Stunden und 39 Minuten, um 17:00 UTC
Gültige Prognose vom 10 um 18 UTC bis 10 um 24 UTC
Wind 15 kt aus Süd/Südwest, Böen bis zu 25 kt
Sichtweite 10 km oder mehr
Durchbrochene Bewölkung in der Höhe von 3500 ft
Übergehend zu
vom 10 um 22 UTC bis 10 um 24 UTC
Wind 12 kt aus Süd/Südwest

TAF: EDTL 101700Z 1018/1024 20015G25KT 9999 BKN035 BECMG 1022/1024 20012KT

Wetterbeobachtungen und Prognosen von mehr als 4000 Flughäfen (METAR und TAF Bericht).

Die verfügbaren Stationen werden durch gelbe und rote Markierungen auf der Karte dargestellt.

Führen Sie die Maus auf sie, um den Namen der Station zu sehen.

Darauf klicken, um die Beobachtung von Wetterbeobachtungen und Prognosen zu sehen.

Um die Karte zu ändern : klicken Sie auf den grünen Tasten mit einem schwarzen Kreuz Zum Vergrößern, auf den grünen Button mit einem Gedankenstrich zu verkleinern, oder auf die grünen Pfeile für benachbarte Karten.


METAR-TAF: